createdAt,value
2018-02-02T00:02:14.816Z,0.50
2018-02-02T00:04:43.839Z,0.40
2018-02-02T00:07:12.135Z,0.40
2018-02-02T00:09:40.375Z,0.40
2018-02-02T00:12:08.635Z,0.30
2018-02-02T00:14:36.954Z,0.30
2018-02-02T00:17:05.214Z,0.30
2018-02-02T00:19:33.487Z,0.30
2018-02-02T00:22:01.759Z,0.20
2018-02-02T00:24:30.032Z,0.20
2018-02-02T00:26:58.319Z,0.20
2018-02-02T00:29:27.332Z,0.10
2018-02-02T00:31:55.621Z,0.00
2018-02-02T00:34:24.633Z,0.00
2018-02-02T00:36:52.937Z,-0.10
2018-02-02T00:39:21.215Z,-0.10
2018-02-02T00:41:49.522Z,-0.10
2018-02-02T00:44:17.781Z,-0.20
2018-02-02T00:46:46.058Z,-0.20
2018-02-02T00:49:15.109Z,-0.10
2018-02-02T00:51:48.859Z,-0.10
2018-02-02T00:54:17.116Z,-0.10
2018-02-02T00:56:45.403Z,-0.10
2018-02-02T00:59:14.077Z,0.00
2018-02-02T01:01:42.339Z,0.00
2018-02-02T01:04:10.583Z,0.00
2018-02-02T01:06:38.853Z,0.00
2018-02-02T01:09:07.145Z,0.10
2018-02-02T01:11:35.418Z,0.10
2018-02-02T01:14:03.691Z,0.10
2018-02-02T01:16:32.736Z,0.00
2018-02-02T01:19:02.015Z,-0.10
2018-02-02T01:21:31.055Z,-0.10
2018-02-02T01:23:59.331Z,-0.20
2018-02-02T01:26:27.620Z,-0.10
2018-02-02T01:28:55.911Z,-0.20
2018-02-02T01:31:24.174Z,-0.30
2018-02-02T01:33:53.218Z,-0.30
2018-02-02T01:36:21.500Z,-0.40
2018-02-02T01:38:49.787Z,-0.40
2018-02-02T01:41:18.068Z,-0.40
2018-02-02T01:43:46.340Z,-0.40
2018-02-02T01:46:14.604Z,-0.30
2018-02-02T01:48:42.862Z,-0.30
2018-02-02T01:51:11.109Z,-0.30
2018-02-02T01:53:40.132Z,-0.30
2018-02-02T01:56:09.351Z,-0.30
2018-02-02T01:58:37.631Z,-0.20
2018-02-02T02:01:05.967Z,-0.10
2018-02-02T02:03:35.003Z,-0.10
2018-02-02T02:06:04.618Z,-0.10
2018-02-02T02:08:33.670Z,-0.10
2018-02-02T02:11:01.920Z,-0.10
2018-02-02T02:13:30.971Z,0.00
2018-02-02T02:15:59.702Z,0.00
2018-02-02T02:18:27.971Z,-0.10
2018-02-02T02:20:56.221Z,-0.10
2018-02-02T02:23:24.499Z,-0.10
2018-02-02T02:25:53.548Z,-0.20
2018-02-02T02:28:21.820Z,-0.30
2018-02-02T02:30:50.079Z,-0.30
2018-02-02T02:33:19.135Z,-0.40
2018-02-02T02:35:47.412Z,-0.40
2018-02-02T02:38:16.378Z,-0.40
2018-02-02T02:40:45.438Z,-0.40
2018-02-02T02:43:13.703Z,-0.50
2018-02-02T02:45:41.943Z,-0.40
2018-02-02T02:48:10.225Z,-0.40
2018-02-02T02:50:38.516Z,-0.40
2018-02-02T02:53:06.783Z,-0.40
2018-02-02T02:55:35.051Z,-0.40
2018-02-02T02:58:03.328Z,-0.30
2018-02-02T03:00:31.621Z,-0.20
2018-02-02T03:02:59.883Z,-0.10
2018-02-02T03:05:28.931Z,0.00
2018-02-02T03:07:57.193Z,0.00
2018-02-02T03:10:26.221Z,0.00
2018-02-02T03:12:54.477Z,0.00
2018-02-02T03:15:22.737Z,0.00
2018-02-02T03:17:51.001Z,0.00
2018-02-02T03:20:19.255Z,0.00
2018-02-02T03:22:48.266Z,0.00
2018-02-02T03:25:17.296Z,0.00
2018-02-02T03:27:45.555Z,0.00
2018-02-02T03:30:14.620Z,0.00
2018-02-02T03:32:42.879Z,0.00
2018-02-02T03:35:11.155Z,0.00
2018-02-02T03:37:39.440Z,-0.10
2018-02-02T03:40:07.734Z,0.00
2018-02-02T03:42:36.007Z,0.00
2018-02-02T03:45:05.077Z,0.00
2018-02-02T03:47:33.328Z,-0.10
2018-02-02T03:50:01.604Z,-0.10
2018-02-02T03:52:29.895Z,-0.10
2018-02-02T03:54:58.193Z,-0.20
2018-02-02T03:57:26.468Z,-0.20
2018-02-02T03:59:55.507Z,-0.30
2018-02-02T04:02:23.765Z,-0.30
2018-02-02T04:04:52.839Z,-0.30
2018-02-02T04:07:21.106Z,-0.30
2018-02-02T04:09:49.359Z,-0.30
2018-02-02T04:12:17.643Z,-0.40
2018-02-02T04:14:45.907Z,-0.40
2018-02-02T04:17:14.952Z,-0.50
2018-02-02T04:19:43.246Z,-0.60
2018-02-02T04:22:11.508Z,-0.50
2018-02-02T04:24:40.529Z,-0.60
2018-02-02T04:27:08.948Z,-0.60
2018-02-02T04:29:37.187Z,-0.60
2018-02-02T04:32:06.702Z,-0.50
2018-02-02T04:34:35.725Z,-0.50
2018-02-02T04:37:04.005Z,-0.60
2018-02-02T04:39:33.023Z,-0.60
2018-02-02T04:42:01.303Z,-0.60
2018-02-02T04:44:30.339Z,-0.50
2018-02-02T04:46:58.615Z,-0.60
2018-02-02T04:49:26.872Z,-0.60
2018-02-02T04:51:56.768Z,-0.70
2018-02-02T04:54:25.028Z,-0.70
2018-02-02T04:56:53.342Z,-0.70
2018-02-02T04:59:21.610Z,-0.70
2018-02-02T05:01:49.900Z,-0.70
2018-02-02T05:04:18.155Z,-0.80
2018-02-02T05:06:47.187Z,-0.80
2018-02-02T05:09:15.453Z,-0.90
2018-02-02T05:11:44.519Z,-0.90
2018-02-02T05:14:12.792Z,-1.00
2018-02-02T05:16:41.084Z,-0.90
2018-02-02T05:19:09.354Z,-1.00
2018-02-02T05:21:37.631Z,-1.00
2018-02-02T05:24:05.933Z,-1.00
2018-02-02T05:26:34.274Z,-0.90
2018-02-02T05:29:03.288Z,-0.80
2018-02-02T05:31:31.575Z,-0.90
2018-02-02T05:33:59.841Z,-0.80
2018-02-02T05:36:28.169Z,-0.80
2018-02-02T05:38:57.410Z,-0.80
2018-02-02T05:41:25.673Z,-0.80
2018-02-02T05:43:54.708Z,-0.80
2018-02-02T05:46:22.989Z,-0.90
2018-02-02T05:48:51.278Z,-0.90
2018-02-02T05:51:19.562Z,-1.00
2018-02-02T05:53:47.832Z,-0.90
2018-02-02T05:56:16.863Z,-1.00
2018-02-02T05:58:45.194Z,-1.00
2018-02-02T06:01:13.456Z,-1.00
2018-02-02T06:03:41.732Z,-1.00
2018-02-02T06:06:10.074Z,-1.00
2018-02-02T06:08:38.373Z,-1.00
2018-02-02T06:11:06.656Z,-0.90
2018-02-02T06:13:34.940Z,-0.90
2018-02-02T06:16:03.196Z,-1.00
2018-02-02T06:18:31.472Z,-1.00
2018-02-02T06:21:00.265Z,-1.00
2018-02-02T06:23:29.308Z,-1.00
2018-02-02T06:25:57.576Z,-1.00
2018-02-02T06:28:25.872Z,-1.00
2018-02-02T06:30:54.137Z,-1.00
2018-02-02T06:33:23.181Z,-1.00
2018-02-02T06:35:51.439Z,-1.00
2018-02-02T06:38:19.738Z,-1.00
2018-02-02T06:40:48.020Z,-1.00
2018-02-02T06:43:16.296Z,-1.00
2018-02-02T06:45:45.332Z,-0.90
2018-02-02T06:48:13.612Z,-0.90
2018-02-02T06:50:41.893Z,-0.90
2018-02-02T06:53:10.208Z,-0.90
2018-02-02T06:55:38.473Z,-0.80
2018-02-02T06:58:07.510Z,-0.80
2018-02-02T07:00:35.768Z,-0.90
2018-02-02T07:03:04.046Z,-0.20
2018-02-02T07:05:33.095Z,-0.40
2018-02-02T07:08:01.355Z,-0.40
2018-02-02T07:10:29.659Z,-0.50
2018-02-02T07:12:57.934Z,-0.50
2018-02-02T07:15:26.260Z,-0.60
2018-02-02T07:17:54.563Z,-0.70
2018-02-02T07:20:22.877Z,-0.70
2018-02-02T07:22:52.640Z,-0.70
2018-02-02T07:25:20.944Z,-0.70
2018-02-02T07:27:49.265Z,-0.60
2018-02-02T07:30:17.575Z,-0.60
2018-02-02T07:32:46.611Z,-0.60
2018-02-02T07:35:14.897Z,-0.60
2018-02-02T07:37:43.187Z,-0.60
2018-02-02T07:40:11.632Z,-0.50
2018-02-02T07:42:39.921Z,-0.50
2018-02-02T07:45:08.208Z,-0.40
2018-02-02T07:47:36.481Z,-0.20
2018-02-02T07:50:05.583Z,-0.20
2018-02-02T07:52:33.855Z,-0.10
2018-02-02T07:55:02.148Z,-0.10
2018-02-02T07:57:30.471Z,0.00
2018-02-02T07:59:58.762Z,0.00
2018-02-02T08:02:27.079Z,0.10
2018-02-02T08:04:56.132Z,0.40
2018-02-02T08:07:24.400Z,0.30
2018-02-02T08:09:52.677Z,0.40
2018-02-02T08:12:21.697Z,0.60
2018-02-02T08:14:49.988Z,0.50
2018-02-02T08:17:19.261Z,0.60
2018-02-02T08:19:47.560Z,0.70
2018-02-02T08:22:17.157Z,0.90
2018-02-02T08:24:45.464Z,0.80
2018-02-02T08:27:13.716Z,1.00
2018-02-02T08:29:41.988Z,1.20
2018-02-02T08:32:10.749Z,1.50
2018-02-02T08:34:39.016Z,1.50
2018-02-02T08:37:07.264Z,1.50
2018-02-02T08:39:35.540Z,1.40
2018-02-02T08:42:03.831Z,1.40
2018-02-02T08:44:32.183Z,1.40
2018-02-02T08:47:00.449Z,1.40
2018-02-02T08:49:28.691Z,1.40
2018-02-02T08:51:56.974Z,1.50
2018-02-02T08:54:26.016Z,1.70
2018-02-02T08:56:54.285Z,1.70
2018-02-02T08:59:22.597Z,1.90
2018-02-02T09:01:56.479Z,2.10
2018-02-02T09:04:25.517Z,2.70
2018-02-02T09:06:53.788Z,2.70
2018-02-02T09:09:22.812Z,3.20
2018-02-02T09:11:51.092Z,3.10
2018-02-02T09:14:19.363Z,3.30
2018-02-02T09:16:48.386Z,3.40
2018-02-02T09:19:18.545Z,3.30
2018-02-02T09:21:54.131Z,3.40
2018-02-02T09:24:23.178Z,3.50
2018-02-02T09:26:51.511Z,3.50
2018-02-02T09:29:19.788Z,3.50
2018-02-02T09:31:48.815Z,3.30
2018-02-02T09:34:17.072Z,3.30
2018-02-02T09:36:45.351Z,3.40
2018-02-02T09:39:13.603Z,3.40
2018-02-02T09:41:42.804Z,3.40
2018-02-02T09:44:12.030Z,3.50
2018-02-02T09:46:40.355Z,3.60
2018-02-02T09:49:08.612Z,3.70
2018-02-02T09:51:47.069Z,3.70
2018-02-02T09:54:15.339Z,3.70
2018-02-02T09:56:43.631Z,3.70
2018-02-02T09:59:11.963Z,3.70
2018-02-02T10:01:41.026Z,3.60
2018-02-02T10:04:10.462Z,3.80
2018-02-02T10:06:38.719Z,3.70
2018-02-02T10:09:07.754Z,3.90
2018-02-02T10:11:36.031Z,3.80
2018-02-02T10:14:04.276Z,4.00
2018-02-02T10:16:32.575Z,4.20
2018-02-02T10:19:00.839Z,4.30
2018-02-02T10:21:29.203Z,4.20
2018-02-02T10:23:57.454Z,4.40
2018-02-02T10:26:25.715Z,4.50
2018-02-02T10:28:54.792Z,4.70
2018-02-02T10:31:23.055Z,4.60
2018-02-02T10:33:52.096Z,4.60
2018-02-02T10:36:20.383Z,4.60
2018-02-02T10:38:48.736Z,4.60
2018-02-02T10:41:17.876Z,4.50
2018-02-02T10:43:46.268Z,4.40
2018-02-02T10:46:14.566Z,4.80
2018-02-02T10:48:42.832Z,5.00
2018-02-02T10:51:11.087Z,5.10
2018-02-02T10:53:39.368Z,5.10
2018-02-02T10:56:08.409Z,5.40
2018-02-02T10:58:37.448Z,5.70
2018-02-02T11:01:11.213Z,5.60
2018-02-02T11:06:37.392Z,5.80
2018-02-02T11:09:05.676Z,5.80
2018-02-02T11:11:33.959Z,5.90
2018-02-02T11:14:02.239Z,5.70
2018-02-02T11:16:30.515Z,5.70
2018-02-02T11:18:58.813Z,5.50
2018-02-02T11:21:27.064Z,5.50
2018-02-02T11:23:55.347Z,5.40
2018-02-02T11:26:23.609Z,5.40
2018-02-02T11:28:51.884Z,5.30
2018-02-02T11:31:20.918Z,5.00
2018-02-02T11:33:49.972Z,4.80
2018-02-02T11:36:18.255Z,4.80
2018-02-02T11:38:46.587Z,4.80
2018-02-02T11:41:15.627Z,4.60
2018-02-02T11:43:43.895Z,4.60
2018-02-02T11:46:12.925Z,4.70
2018-02-02T11:48:41.200Z,4.70
2018-02-02T11:51:10.242Z,4.90
2018-02-02T11:53:38.518Z,4.80
2018-02-02T11:56:06.812Z,5.10
2018-02-02T11:58:35.120Z,5.50
2018-02-02T12:01:03.422Z,5.90
2018-02-02T12:03:31.745Z,5.80
2018-02-02T12:06:00.799Z,5.60
2018-02-02T12:08:29.120Z,5.50
2018-02-02T12:10:58.368Z,5.40
2018-02-02T12:13:28.124Z,5.10
2018-02-02T12:15:56.400Z,5.10
2018-02-02T12:18:24.668Z,5.00
2018-02-02T12:20:52.947Z,4.90
2018-02-02T12:23:24.424Z,4.80
2018-02-02T12:25:58.258Z,4.80
2018-02-02T12:28:32.014Z,4.80
2018-02-02T12:31:02.020Z,4.70
2018-02-02T12:33:40.196Z,4.60
2018-02-02T12:36:09.459Z,4.60
2018-02-02T12:38:37.735Z,4.60
2018-02-02T12:41:06.957Z,4.70
2018-02-02T12:43:35.217Z,4.70
2018-02-02T12:46:03.483Z,4.70
2018-02-02T12:48:41.568Z,4.90
2018-02-02T12:51:17.495Z,5.00
2018-02-02T12:53:45.760Z,5.20
2018-02-02T12:56:14.057Z,5.30
2018-02-02T12:58:43.087Z,5.40
2018-02-02T13:01:11.409Z,5.40
2018-02-02T13:03:39.669Z,5.50
2018-02-02T13:06:08.010Z,5.50
2018-02-02T13:08:36.593Z,5.40
2018-02-02T13:11:04.857Z,5.30
2018-02-02T13:13:33.111Z,5.30
2018-02-02T13:16:02.184Z,5.20
2018-02-02T13:18:30.464Z,5.10
2018-02-02T13:20:58.769Z,5.10
2018-02-02T13:23:27.808Z,5.10
2018-02-02T13:25:56.075Z,5.10
2018-02-02T13:28:26.078Z,5.10
2018-02-02T13:30:54.352Z,5.00
2018-02-02T13:33:22.604Z,5.00
2018-02-02T13:35:50.907Z,4.90
2018-02-02T13:38:19.160Z,4.90
2018-02-02T13:40:47.443Z,4.90
2018-02-02T13:43:15.710Z,4.90
2018-02-02T13:45:44.034Z,4.80
2018-02-02T13:48:12.288Z,4.80
2018-02-02T13:50:40.587Z,4.80
2018-02-02T13:53:08.836Z,4.70
2018-02-02T13:55:37.106Z,4.60
2018-02-02T13:58:06.134Z,4.30
2018-02-02T14:00:34.452Z,4.30
2018-02-02T14:03:02.704Z,4.20
2018-02-02T14:05:30.995Z,4.20
2018-02-02T14:07:59.276Z,4.10
2018-02-02T14:10:27.561Z,4.20
2018-02-02T14:12:55.823Z,4.30
2018-02-02T14:15:25.061Z,4.50
2018-02-02T14:17:53.340Z,4.50
2018-02-02T14:20:22.357Z,4.30
2018-02-02T14:22:50.619Z,4.30
2018-02-02T14:25:18.865Z,4.30
2018-02-02T14:27:48.112Z,4.20
2018-02-02T14:30:16.376Z,4.10
2018-02-02T14:32:44.651Z,4.10
2018-02-02T14:35:12.920Z,4.10
2018-02-02T14:37:41.248Z,4.10
2018-02-02T14:40:09.503Z,4.20
2018-02-02T14:42:37.759Z,4.20
2018-02-02T14:45:07.719Z,4.10
2018-02-02T14:47:35.994Z,4.10
2018-02-02T14:50:05.065Z,4.00
2018-02-02T14:52:33.367Z,4.00
2018-02-02T14:55:01.703Z,4.00
2018-02-02T14:57:30.020Z,4.00
2018-02-02T14:59:58.297Z,4.00
2018-02-02T15:02:26.595Z,4.00
2018-02-02T15:04:54.864Z,4.00
2018-02-02T15:07:23.118Z,4.00
2018-02-02T15:09:52.171Z,4.00
2018-02-02T15:12:20.452Z,4.00
2018-02-02T15:14:48.736Z,4.00
2018-02-02T15:17:17.098Z,3.90
2018-02-02T15:19:46.133Z,4.00
2018-02-02T15:22:14.436Z,3.90
2018-02-02T15:24:42.703Z,4.10
2018-02-02T15:27:11.061Z,4.10
2018-02-02T15:29:39.325Z,4.10
2018-02-02T15:32:07.592Z,4.00
2018-02-02T15:34:36.647Z,3.80
2018-02-02T15:37:04.964Z,3.80
2018-02-02T15:39:33.257Z,3.80
2018-02-02T15:42:01.534Z,3.80
2018-02-02T15:44:30.603Z,3.90
2018-02-02T15:46:59.648Z,3.90
2018-02-02T15:49:27.957Z,3.80
2018-02-02T15:51:56.233Z,3.80
2018-02-02T15:54:25.151Z,3.80
2018-02-02T15:56:53.416Z,3.80
2018-02-02T15:59:22.463Z,3.80
2018-02-02T16:01:50.728Z,3.70
2018-02-02T16:04:19.016Z,3.70
2018-02-02T16:06:47.280Z,3.70
2018-02-02T16:09:16.337Z,3.60
2018-02-02T16:11:44.674Z,3.60
2018-02-02T16:14:13.721Z,3.60
2018-02-02T16:16:43.488Z,3.60
2018-02-02T16:19:11.794Z,3.60
2018-02-02T16:21:40.125Z,3.60
2018-02-02T16:24:08.396Z,3.60
2018-02-02T16:26:37.429Z,3.60
2018-02-02T16:29:05.745Z,3.60
2018-02-02T16:31:34.006Z,3.60
2018-02-02T16:34:02.291Z,3.60
2018-02-02T16:36:30.563Z,3.60
2018-02-02T16:38:58.833Z,3.60
2018-02-02T16:41:27.421Z,3.60
2018-02-02T16:43:56.057Z,3.50
2018-02-02T16:46:25.179Z,3.60
2018-02-02T16:48:53.692Z,3.60
2018-02-02T16:51:21.955Z,3.50
2018-02-02T16:53:50.230Z,3.50
2018-02-02T16:56:18.502Z,3.50
2018-02-02T16:58:48.322Z,3.50
2018-02-02T17:01:17.344Z,3.50
2018-02-02T17:03:45.610Z,3.50
2018-02-02T17:06:13.896Z,3.50
2018-02-02T17:08:42.159Z,3.50
2018-02-02T17:11:10.437Z,3.40
2018-02-02T17:13:38.700Z,3.40
2018-02-02T17:16:06.976Z,3.50
2018-02-02T17:18:36.012Z,3.40
2018-02-02T17:21:04.286Z,3.40
2018-02-02T17:23:32.593Z,3.40
2018-02-02T17:26:01.685Z,3.50
2018-02-02T17:28:30.017Z,3.50
2018-02-02T17:30:58.303Z,3.50
2018-02-02T17:33:26.558Z,3.50
2018-02-02T17:35:54.839Z,3.50
2018-02-02T17:38:23.121Z,3.40
2018-02-02T17:40:52.194Z,3.50
2018-02-02T17:43:20.467Z,3.40
2018-02-02T17:45:48.752Z,3.40
2018-02-02T17:48:17.061Z,3.40
2018-02-02T17:50:45.352Z,3.40
2018-02-02T17:53:13.605Z,3.40
2018-02-02T17:55:41.875Z,3.40
2018-02-02T17:58:10.143Z,3.40
2018-02-02T18:00:40.903Z,3.40
2018-02-02T18:03:13.496Z,3.40
2018-02-02T18:05:41.784Z,3.40
2018-02-02T18:08:10.811Z,3.30
2018-02-02T18:10:39.085Z,3.30
2018-02-02T18:13:07.348Z,3.30
2018-02-02T18:15:37.287Z,3.30
2018-02-02T18:18:06.304Z,3.30
2018-02-02T18:20:34.565Z,3.20
2018-02-02T18:23:02.841Z,3.20
2018-02-02T18:25:31.120Z,3.20
2018-02-02T18:27:59.442Z,3.20
2018-02-02T18:30:27.764Z,3.20
2018-02-02T18:32:56.026Z,3.10
2018-02-02T18:35:25.102Z,3.10
2018-02-02T18:37:53.397Z,3.10
2018-02-02T18:40:21.643Z,3.10
2018-02-02T18:42:49.899Z,3.10
2018-02-02T18:45:18.946Z,3.10
2018-02-02T18:47:47.200Z,3.10
2018-02-02T18:50:15.458Z,3.10
2018-02-02T18:52:43.768Z,3.20
2018-02-02T18:55:12.003Z,3.20
2018-02-02T18:57:40.263Z,3.20
2018-02-02T19:00:08.572Z,3.20
2018-02-02T19:02:36.852Z,3.20
2018-02-02T19:05:05.121Z,3.20
2018-02-02T19:07:34.214Z,3.20
2018-02-02T19:10:02.530Z,3.20
2018-02-02T19:12:31.599Z,3.20
2018-02-02T19:14:59.907Z,3.20
2018-02-02T19:17:29.246Z,3.20
2018-02-02T19:19:57.516Z,3.10
2018-02-02T19:22:26.547Z,3.20
2018-02-02T19:24:54.821Z,3.10
2018-02-02T19:27:23.877Z,3.20
2018-02-02T19:29:52.186Z,3.10
2018-02-02T19:32:21.296Z,3.20
2018-02-02T19:34:49.552Z,3.10
2018-02-02T19:37:17.823Z,3.10
2018-02-02T19:39:46.183Z,3.20
2018-02-02T19:42:14.531Z,3.10
2018-02-02T19:44:42.831Z,3.10
2018-02-02T19:47:11.156Z,3.10
2018-02-02T19:49:39.413Z,3.10
2018-02-02T19:52:07.738Z,3.00
2018-02-02T19:54:35.991Z,3.00
2018-02-02T19:57:05.085Z,2.80
2018-02-02T19:59:33.407Z,2.90
2018-02-02T20:02:01.707Z,3.00
2018-02-02T20:04:30.043Z,2.90
2018-02-02T20:06:59.403Z,2.90
2018-02-02T20:09:27.778Z,2.90
2018-02-02T20:11:57.610Z,2.70
2018-02-02T20:14:26.104Z,2.70
2018-02-02T20:16:54.655Z,2.60
2018-02-02T20:19:23.316Z,2.60
2018-02-02T20:21:51.858Z,2.60
2018-02-02T20:24:20.455Z,2.50
2018-02-02T20:26:49.188Z,2.50
2018-02-02T20:29:17.911Z,2.40
2018-02-02T20:31:46.697Z,2.50
2018-02-02T20:34:14.956Z,2.50
2018-02-02T20:36:43.195Z,2.60
2018-02-02T20:39:12.292Z,2.70
2018-02-02T20:41:40.590Z,2.60
2018-02-02T20:44:08.901Z,2.70
2018-02-02T20:46:37.204Z,2.70
2018-02-02T20:49:05.465Z,2.70
2018-02-02T20:51:34.482Z,2.80
2018-02-02T20:54:02.794Z,2.80
2018-02-02T20:56:31.141Z,2.80
2018-02-02T20:58:59.424Z,2.90
2018-02-02T21:01:28.667Z,3.00
2018-02-02T21:03:57.127Z,2.90
2018-02-02T21:06:25.427Z,2.90
2018-02-02T21:08:53.740Z,2.90
2018-02-02T21:11:22.737Z,2.90
2018-02-02T21:13:51.071Z,2.90
2018-02-02T21:16:19.375Z,2.90
2018-02-02T21:18:47.694Z,2.80
2018-02-02T21:21:16.765Z,2.90
2018-02-02T21:23:45.039Z,2.80
2018-02-02T21:26:13.316Z,2.80
2018-02-02T21:28:41.632Z,2.80
2018-02-02T21:31:09.893Z,2.80
2018-02-02T21:33:38.160Z,2.80
2018-02-02T21:36:06.496Z,2.80
2018-02-02T21:38:34.764Z,2.80
2018-02-02T21:41:03.048Z,2.80
2018-02-02T21:43:31.407Z,2.80
2018-02-02T21:45:59.859Z,2.80
2018-02-02T21:48:28.122Z,2.80
2018-02-02T21:50:56.402Z,2.80
2018-02-02T21:53:24.767Z,2.80
2018-02-02T21:55:53.808Z,2.70
2018-02-02T21:58:22.088Z,2.60
2018-02-02T22:00:50.411Z,2.60
2018-02-02T22:03:18.711Z,2.60
2018-02-02T22:05:46.972Z,2.60
2018-02-02T22:08:15.250Z,2.60
2018-02-02T22:10:43.537Z,2.50
2018-02-02T22:13:11.859Z,2.50
2018-02-02T22:15:40.124Z,2.40
2018-02-02T22:18:08.460Z,2.40
2018-02-02T22:20:36.720Z,2.40
2018-02-02T22:23:04.986Z,2.30
2018-02-02T22:25:33.364Z,2.30
2018-02-02T22:28:02.492Z,2.10
2018-02-02T22:30:31.100Z,2.00
2018-02-02T22:32:59.542Z,2.00
2018-02-02T22:35:29.833Z,1.90
2018-02-02T22:37:58.180Z,1.90
2018-02-02T22:40:27.379Z,1.90
2018-02-02T22:42:56.565Z,1.90
2018-02-02T22:45:24.826Z,1.90
2018-02-02T22:47:53.090Z,1.80
2018-02-02T22:50:21.363Z,1.80
2018-02-02T22:52:50.393Z,1.70
2018-02-02T22:55:18.716Z,1.70
2018-02-02T22:57:47.019Z,1.70
2018-02-02T23:00:15.291Z,1.70
2018-02-02T23:02:43.547Z,1.70
2018-02-02T23:05:11.815Z,1.70
2018-02-02T23:07:40.839Z,1.70
2018-02-02T23:10:09.096Z,1.70
2018-02-02T23:12:37.651Z,1.70
2018-02-02T23:15:05.926Z,1.70
2018-02-02T23:17:34.210Z,1.70
2018-02-02T23:20:02.487Z,1.80
2018-02-02T23:22:30.863Z,1.80
2018-02-02T23:24:59.612Z,1.80
2018-02-02T23:27:27.888Z,1.80
2018-02-02T23:29:56.152Z,1.90
2018-02-02T23:32:25.188Z,2.00
2018-02-02T23:34:53.444Z,2.00
2018-02-02T23:37:22.477Z,2.20
2018-02-02T23:39:50.731Z,2.10
2018-02-02T23:42:18.999Z,2.20
2018-02-02T23:44:47.296Z,2.20
2018-02-02T23:47:15.610Z,2.30
2018-02-02T23:49:43.892Z,2.40
2018-02-02T23:52:12.174Z,2.40
2018-02-02T23:54:40.441Z,2.50
2018-02-02T23:57:08.721Z,2.50
2018-02-02T23:59:36.977Z,2.50
